sensor_id;sensor_type;location;lat;lon;timestamp;P1;durP1;ratioP1;P2;durP2;ratioP2
25263;SDS011;13211;51.796;5.808;2022-12-07T00:01:10;19.30;;;10.00;;
25263;SDS011;13211;51.796;5.808;2022-12-07T00:03:39;14.13;;;9.50;;
25263;SDS011;13211;51.796;5.808;2022-12-07T00:06:08;13.13;;;9.35;;
25263;SDS011;13211;51.796;5.808;2022-12-07T00:08:36;15.68;;;9.40;;
25263;SDS011;13211;51.796;5.808;2022-12-07T00:11:05;19.52;;;9.98;;
25263;SDS011;13211;51.796;5.808;2022-12-07T00:13:33;13.65;;;8.93;;
25263;SDS011;13211;51.796;5.808;2022-12-07T00:16:06;13.10;;;9.27;;
25263;SDS011;13211;51.796;5.808;2022-12-07T00:18:34;18.73;;;9.02;;
25263;SDS011;13211;51.796;5.808;2022-12-07T00:23:30;15.70;;;9.32;;
25263;SDS011;13211;51.796;5.808;2022-12-07T00:26:03;15.95;;;9.10;;
25263;SDS011;13211;51.796;5.808;2022-12-07T00:28:31;16.35;;;9.25;;
25263;SDS011;13211;51.796;5.808;2022-12-07T00:31:01;13.73;;;8.98;;
25263;SDS011;13211;51.796;5.808;2022-12-07T00:33:29;14.15;;;8.57;;
25263;SDS011;13211;51.796;5.808;2022-12-07T00:35:58;17.20;;;9.32;;
25263;SDS011;13211;51.796;5.808;2022-12-07T00:38:28;13.82;;;8.57;;
25263;SDS011;13211;51.796;5.808;2022-12-07T00:40:57;13.43;;;8.68;;
25263;SDS011;13211;51.796;5.808;2022-12-07T00:43:25;14.00;;;8.48;;
25263;SDS011;13211;51.796;5.808;2022-12-07T00:45:54;21.65;;;9.25;;
25263;SDS011;13211;51.796;5.808;2022-12-07T00:48:22;16.77;;;8.77;;
25263;SDS011;13211;51.796;5.808;2022-12-07T00:50:49;14.88;;;8.93;;
25263;SDS011;13211;51.796;5.808;2022-12-07T00:53:17;15.07;;;8.25;;
25263;SDS011;13211;51.796;5.808;2022-12-07T00:55:44;13.73;;;8.00;;
25263;SDS011;13211;51.796;5.808;2022-12-07T00:58:12;13.65;;;8.38;;
25263;SDS011;13211;51.796;5.808;2022-12-07T01:03:33;15.45;;;8.25;;
25263;SDS011;13211;51.796;5.808;2022-12-07T01:06:02;17.70;;;8.50;;
25263;SDS011;13211;51.796;5.808;2022-12-07T01:08:30;12.25;;;8.57;;
25263;SDS011;13211;51.796;5.808;2022-12-07T01:11:04;15.07;;;8.52;;
25263;SDS011;13211;51.796;5.808;2022-12-07T01:13:32;18.08;;;8.50;;
25263;SDS011;13211;51.796;5.808;2022-12-07T01:16:02;15.27;;;7.93;;
25263;SDS011;13211;51.796;5.808;2022-12-07T01:18:30;13.00;;;8.27;;
25263;SDS011;13211;51.796;5.808;2022-12-07T01:21:04;13.63;;;8.32;;
25263;SDS011;13211;51.796;5.808;2022-12-07T01:23:32;13.73;;;7.80;;
25263;SDS011;13211;51.796;5.808;2022-12-07T01:26:02;15.50;;;8.70;;
25263;SDS011;13211;51.796;5.808;2022-12-07T01:28:34;12.70;;;7.97;;
25263;SDS011;13211;51.796;5.808;2022-12-07T01:31:03;13.88;;;7.80;;
25263;SDS011;13211;51.796;5.808;2022-12-07T01:33:32;11.60;;;7.90;;
25263;SDS011;13211;51.796;5.808;2022-12-07T01:36:21;13.32;;;7.95;;
25263;SDS011;13211;51.796;5.808;2022-12-07T01:38:49;17.38;;;8.77;;
25263;SDS011;13211;51.796;5.808;2022-12-07T01:41:20;14.23;;;8.40;;
25263;SDS011;13211;51.796;5.808;2022-12-07T01:46:34;14.95;;;8.00;;
25263;SDS011;13211;51.796;5.808;2022-12-07T01:49:03;13.50;;;8.02;;
25263;SDS011;13211;51.796;5.808;2022-12-07T01:51:32;12.63;;;7.63;;
25263;SDS011;13211;51.796;5.808;2022-12-07T01:54:00;13.90;;;8.18;;
25263;SDS011;13211;51.796;5.808;2022-12-07T01:56:29;17.42;;;8.00;;
25263;SDS011;13211;51.796;5.808;2022-12-07T01:58:58;12.10;;;7.10;;
25263;SDS011;13211;51.796;5.808;2022-12-07T02:01:27;12.77;;;7.40;;
25263;SDS011;13211;51.796;5.808;2022-12-07T02:03:55;15.57;;;7.80;;
25263;SDS011;13211;51.796;5.808;2022-12-07T02:06:25;15.98;;;7.78;;
25263;SDS011;13211;51.796;5.808;2022-12-07T02:08:53;14.10;;;7.43;;
25263;SDS011;13211;51.796;5.808;2022-12-07T02:11:20;12.75;;;7.28;;
25263;SDS011;13211;51.796;5.808;2022-12-07T02:13:49;11.88;;;7.32;;
25263;SDS011;13211;51.796;5.808;2022-12-07T02:16:23;14.95;;;8.23;;
25263;SDS011;13211;51.796;5.808;2022-12-07T02:29:43;13.32;;;7.40;;
25263;SDS011;13211;51.796;5.808;2022-12-07T02:32:16;10.90;;;7.38;;
25263;SDS011;13211;51.796;5.808;2022-12-07T02:34:55;17.67;;;7.15;;
25263;SDS011;13211;51.796;5.808;2022-12-07T02:39:57;13.65;;;7.65;;
25263;SDS011;13211;51.796;5.808;2022-12-07T02:42:36;14.63;;;7.15;;
25263;SDS011;13211;51.796;5.808;2022-12-07T02:45:06;17.23;;;7.50;;
25263;SDS011;13211;51.796;5.808;2022-12-07T02:47:34;12.48;;;6.80;;
25263;SDS011;13211;51.796;5.808;2022-12-07T02:50:04;14.48;;;8.95;;
25263;SDS011;13211;51.796;5.808;2022-12-07T02:52:32;12.45;;;6.85;;
25263;SDS011;13211;51.796;5.808;2022-12-07T02:54:59;13.77;;;7.13;;
25263;SDS011;13211;51.796;5.808;2022-12-07T02:57:36;17.42;;;7.13;;
25263;SDS011;13211;51.796;5.808;2022-12-07T03:00:12;11.90;;;7.78;;
25263;SDS011;13211;51.796;5.808;2022-12-07T03:10:28;15.38;;;7.22;;
25263;SDS011;13211;51.796;5.808;2022-12-07T03:13:11;14.15;;;7.60;;
25263;SDS011;13211;51.796;5.808;2022-12-07T03:15:41;14.93;;;7.38;;
25263;SDS011;13211;51.796;5.808;2022-12-07T03:18:10;24.77;;;7.38;;
25263;SDS011;13211;51.796;5.808;2022-12-07T03:20:39;12.25;;;7.07;;
25263;SDS011;13211;51.796;5.808;2022-12-07T03:23:09;15.50;;;7.13;;
25263;SDS011;13211;51.796;5.808;2022-12-07T03:25:41;15.25;;;6.93;;
25263;SDS011;13211;51.796;5.808;2022-12-07T03:28:09;15.65;;;7.18;;
25263;SDS011;13211;51.796;5.808;2022-12-07T03:30:45;13.10;;;7.05;;
25263;SDS011;13211;51.796;5.808;2022-12-07T03:33:17;12.25;;;6.90;;
25263;SDS011;13211;51.796;5.808;2022-12-07T03:35:50;12.70;;;6.82;;
25263;SDS011;13211;51.796;5.808;2022-12-07T03:38:23;12.07;;;6.95;;
25263;SDS011;13211;51.796;5.808;2022-12-07T03:41:12;13.40;;;6.70;;
25263;SDS011;13211;51.796;5.808;2022-12-07T03:43:41;16.73;;;7.47;;
25263;SDS011;13211;51.796;5.808;2022-12-07T03:54:47;15.70;;;7.20;;
25263;SDS011;13211;51.796;5.808;2022-12-07T03:57:06;18.27;;;7.63;;
25263;SDS011;13211;51.796;5.808;2022-12-07T03:59:34;18.00;;;6.85;;
25263;SDS011;13211;51.796;5.808;2022-12-07T04:02:02;10.82;;;7.22;;
25263;SDS011;13211;51.796;5.808;2022-12-07T04:04:31;14.75;;;7.57;;
25263;SDS011;13211;51.796;5.808;2022-12-07T04:06:59;23.15;;;8.45;;
25263;SDS011;13211;51.796;5.808;2022-12-07T04:09:27;11.52;;;7.30;;
25263;SDS011;13211;51.796;5.808;2022-12-07T04:11:55;13.70;;;7.47;;
25263;SDS011;13211;51.796;5.808;2022-12-07T04:14:23;11.40;;;7.47;;
25263;SDS011;13211;51.796;5.808;2022-12-07T04:16:52;16.08;;;8.07;;
25263;SDS011;13211;51.796;5.808;2022-12-07T04:19:21;13.00;;;6.70;;
25263;SDS011;13211;51.796;5.808;2022-12-07T04:21:49;16.25;;;5.35;;
25263;SDS011;13211;51.796;5.808;2022-12-07T04:24:16;13.15;;;5.65;;
25263;SDS011;13211;51.796;5.808;2022-12-07T04:26:45;13.48;;;6.03;;
25263;SDS011;13211;51.796;5.808;2022-12-07T04:29:13;17.52;;;6.15;;
25263;SDS011;13211;51.796;5.808;2022-12-07T04:31:40;12.45;;;5.28;;
25263;SDS011;13211;51.796;5.808;2022-12-07T04:34:09;18.08;;;5.68;;
25263;SDS011;13211;51.796;5.808;2022-12-07T04:36:37;13.82;;;5.45;;
25263;SDS011;13211;51.796;5.808;2022-12-07T04:39:05;11.02;;;4.93;;
25263;SDS011;13211;51.796;5.808;2022-12-07T04:41:33;11.60;;;4.90;;
25263;SDS011;13211;51.796;5.808;2022-12-07T04:44:01;19.90;;;4.97;;
25263;SDS011;13211;51.796;5.808;2022-12-07T04:46:30;10.20;;;5.25;;
25263;SDS011;13211;51.796;5.808;2022-12-07T04:48:59;12.27;;;5.13;;
25263;SDS011;13211;51.796;5.808;2022-12-07T04:51:29;9.85;;;5.15;;
25263;SDS011;13211;51.796;5.808;2022-12-07T04:54:04;11.07;;;4.97;;
25263;SDS011;13211;51.796;5.808;2022-12-07T04:56:33;7.70;;;4.30;;
25263;SDS011;13211;51.796;5.808;2022-12-07T04:59:04;14.95;;;4.43;;
25263;SDS011;13211;51.796;5.808;2022-12-07T05:01:32;13.80;;;4.55;;
25263;SDS011;13211;51.796;5.808;2022-12-07T05:04:00;6.80;;;3.63;;
25263;SDS011;13211;51.796;5.808;2022-12-07T05:06:29;12.35;;;3.92;;
25263;SDS011;13211;51.796;5.808;2022-12-07T05:08:57;10.95;;;4.13;;
25263;SDS011;13211;51.796;5.808;2022-12-07T05:11:25;9.68;;;4.43;;
25263;SDS011;13211;51.796;5.808;2022-12-07T05:14:06;10.40;;;3.93;;
25263;SDS011;13211;51.796;5.808;2022-12-07T05:16:34;10.40;;;3.73;;
25263;SDS011;13211;51.796;5.808;2022-12-07T05:19:02;14.65;;;3.88;;
25263;SDS011;13211;51.796;5.808;2022-12-07T05:21:30;11.52;;;4.10;;
25263;SDS011;13211;51.796;5.808;2022-12-07T05:23:58;13.15;;;4.13;;
25263;SDS011;13211;51.796;5.808;2022-12-07T05:26:27;15.13;;;4.20;;
25263;SDS011;13211;51.796;5.808;2022-12-07T05:28:55;8.18;;;4.05;;
25263;SDS011;13211;51.796;5.808;2022-12-07T05:31:23;12.20;;;3.90;;
25263;SDS011;13211;51.796;5.808;2022-12-07T05:33:51;12.25;;;4.70;;
25263;SDS011;13211;51.796;5.808;2022-12-07T05:36:19;11.25;;;4.47;;
25263;SDS011;13211;51.796;5.808;2022-12-07T05:38:47;11.90;;;4.40;;
25263;SDS011;13211;51.796;5.808;2022-12-07T05:41:16;9.05;;;4.07;;
25263;SDS011;13211;51.796;5.808;2022-12-07T05:44:03;11.75;;;4.30;;
25263;SDS011;13211;51.796;5.808;2022-12-07T05:46:32;10.73;;;4.15;;
25263;SDS011;13211;51.796;5.808;2022-12-07T05:49:00;11.95;;;4.10;;
25263;SDS011;13211;51.796;5.808;2022-12-07T05:51:28;16.20;;;3.58;;
25263;SDS011;13211;51.796;5.808;2022-12-07T05:53:57;8.27;;;3.63;;
25263;SDS011;13211;51.796;5.808;2022-12-07T05:56:25;9.95;;;3.90;;
25263;SDS011;13211;51.796;5.808;2022-12-07T05:58:54;13.52;;;3.53;;
25263;SDS011;13211;51.796;5.808;2022-12-07T06:01:40;11.65;;;3.25;;
25263;SDS011;13211;51.796;5.808;2022-12-07T06:04:09;12.55;;;3.65;;
25263;SDS011;13211;51.796;5.808;2022-12-07T06:06:37;19.15;;;3.25;;
25263;SDS011;13211;51.796;5.808;2022-12-07T06:09:06;14.27;;;3.33;;
25263;SDS011;13211;51.796;5.808;2022-12-07T06:11:34;14.38;;;3.20;;
25263;SDS011;13211;51.796;5.808;2022-12-07T06:14:20;8.63;;;3.35;;
25263;SDS011;13211;51.796;5.808;2022-12-07T06:16:48;8.27;;;3.67;;
25263;SDS011;13211;51.796;5.808;2022-12-07T06:19:16;11.18;;;3.55;;
25263;SDS011;13211;51.796;5.808;2022-12-07T06:21:44;7.75;;;3.25;;
25263;SDS011;13211;51.796;5.808;2022-12-07T06:24:12;12.13;;;3.30;;
25263;SDS011;13211;51.796;5.808;2022-12-07T06:26:40;9.35;;;3.22;;
25263;SDS011;13211;51.796;5.808;2022-12-07T06:29:08;18.50;;;3.80;;
25263;SDS011;13211;51.796;5.808;2022-12-07T06:31:39;9.25;;;3.50;;
25263;SDS011;13211;51.796;5.808;2022-12-07T06:34:18;9.25;;;3.50;;
25263;SDS011;13211;51.796;5.808;2022-12-07T06:36:46;8.82;;;2.60;;
25263;SDS011;13211;51.796;5.808;2022-12-07T06:39:18;12.75;;;3.42;;
25263;SDS011;13211;51.796;5.808;2022-12-07T06:41:46;5.65;;;3.10;;
25263;SDS011;13211;51.796;5.808;2022-12-07T06:44:14;12.18;;;3.50;;
25263;SDS011;13211;51.796;5.808;2022-12-07T06:46:41;12.32;;;3.40;;
25263;SDS011;13211;51.796;5.808;2022-12-07T06:49:10;12.07;;;2.60;;
25263;SDS011;13211;51.796;5.808;2022-12-07T06:51:38;11.63;;;3.20;;
25263;SDS011;13211;51.796;5.808;2022-12-07T06:54:08;11.83;;;3.13;;
25263;SDS011;13211;51.796;5.808;2022-12-07T06:56:36;17.58;;;3.70;;
25263;SDS011;13211;51.796;5.808;2022-12-07T06:59:04;15.18;;;3.35;;
25263;SDS011;13211;51.796;5.808;2022-12-07T07:01:33;20.35;;;3.08;;
25263;SDS011;13211;51.796;5.808;2022-12-07T07:04:02;14.18;;;3.17;;
25263;SDS011;13211;51.796;5.808;2022-12-07T07:06:29;10.43;;;2.58;;
25263;SDS011;13211;51.796;5.808;2022-12-07T07:08:58;8.00;;;2.80;;
25263;SDS011;13211;51.796;5.808;2022-12-07T07:11:27;9.70;;;2.67;;
25263;SDS011;13211;51.796;5.808;2022-12-07T07:16:57;10.38;;;2.80;;
25263;SDS011;13211;51.796;5.808;2022-12-07T07:19:25;11.52;;;2.72;;
25263;SDS011;13211;51.796;5.808;2022-12-07T07:21:54;8.20;;;2.83;;
25263;SDS011;13211;51.796;5.808;2022-12-07T07:24:22;10.38;;;3.10;;
25263;SDS011;13211;51.796;5.808;2022-12-07T07:26:52;11.63;;;2.70;;
25263;SDS011;13211;51.796;5.808;2022-12-07T07:29:20;8.60;;;3.05;;
25263;SDS011;13211;51.796;5.808;2022-12-07T07:31:48;10.00;;;2.88;;
25263;SDS011;13211;51.796;5.808;2022-12-07T07:34:16;9.45;;;2.97;;
25263;SDS011;13211;51.796;5.808;2022-12-07T07:36:44;8.38;;;2.90;;
25263;SDS011;13211;51.796;5.808;2022-12-07T07:39:12;14.57;;;3.22;;
25263;SDS011;13211;51.796;5.808;2022-12-07T07:41:40;16.40;;;3.28;;
25263;SDS011;13211;51.796;5.808;2022-12-07T07:44:13;13.35;;;3.10;;
25263;SDS011;13211;51.796;5.808;2022-12-07T07:46:41;11.52;;;3.63;;
25263;SDS011;13211;51.796;5.808;2022-12-07T07:49:09;10.80;;;3.13;;
25263;SDS011;13211;51.796;5.808;2022-12-07T07:51:37;15.82;;;4.00;;
25263;SDS011;13211;51.796;5.808;2022-12-07T07:54:05;11.93;;;3.30;;
25263;SDS011;13211;51.796;5.808;2022-12-07T07:56:33;14.75;;;3.90;;
25263;SDS011;13211;51.796;5.808;2022-12-07T07:59:02;17.80;;;3.45;;
25263;SDS011;13211;51.796;5.808;2022-12-07T08:01:30;18.92;;;3.67;;
25263;SDS011;13211;51.796;5.808;2022-12-07T08:03:58;13.45;;;2.85;;
25263;SDS011;13211;51.796;5.808;2022-12-07T08:06:29;10.38;;;3.08;;
25263;SDS011;13211;51.796;5.808;2022-12-07T08:08:58;9.45;;;3.20;;
25263;SDS011;13211;51.796;5.808;2022-12-07T08:11:29;18.23;;;3.90;;
25263;SDS011;13211;51.796;5.808;2022-12-07T08:13:57;11.98;;;3.25;;
25263;SDS011;13211;51.796;5.808;2022-12-07T08:16:25;8.52;;;3.10;;
25263;SDS011;13211;51.796;5.808;2022-12-07T08:18:54;10.98;;;3.03;;
25263;SDS011;13211;51.796;5.808;2022-12-07T08:21:24;13.27;;;3.30;;
25263;SDS011;13211;51.796;5.808;2022-12-07T08:23:51;9.20;;;3.13;;
25263;SDS011;13211;51.796;5.808;2022-12-07T08:26:19;9.75;;;3.08;;
25263;SDS011;13211;51.796;5.808;2022-12-07T08:28:48;14.65;;;3.72;;
25263;SDS011;13211;51.796;5.808;2022-12-07T08:31:16;17.00;;;3.13;;
25263;SDS011;13211;51.796;5.808;2022-12-07T08:33:46;10.57;;;3.10;;
25263;SDS011;13211;51.796;5.808;2022-12-07T08:36:14;13.98;;;2.60;;
25263;SDS011;13211;51.796;5.808;2022-12-07T08:38:42;12.98;;;2.85;;
25263;SDS011;13211;51.796;5.808;2022-12-07T08:41:30;11.45;;;3.17;;
25263;SDS011;13211;51.796;5.808;2022-12-07T08:44:00;14.95;;;3.40;;
25263;SDS011;13211;51.796;5.808;2022-12-07T08:46:32;14.07;;;3.45;;
25263;SDS011;13211;51.796;5.808;2022-12-07T08:49:07;7.53;;;2.90;;
25263;SDS011;13211;51.796;5.808;2022-12-07T08:51:36;10.57;;;3.20;;
25263;SDS011;13211;51.796;5.808;2022-12-07T08:54:07;16.02;;;3.67;;
25263;SDS011;13211;51.796;5.808;2022-12-07T08:56:39;15.07;;;3.58;;
25263;SDS011;13211;51.796;5.808;2022-12-07T08:59:10;14.52;;;3.70;;
25263;SDS011;13211;51.796;5.808;2022-12-07T09:01:38;14.98;;;4.50;;
25263;SDS011;13211;51.796;5.808;2022-12-07T09:04:06;17.58;;;4.03;;
25263;SDS011;13211;51.796;5.808;2022-12-07T09:06:34;15.27;;;4.18;;
25263;SDS011;13211;51.796;5.808;2022-12-07T09:09:05;19.73;;;4.80;;
25263;SDS011;13211;51.796;5.808;2022-12-07T09:11:34;17.08;;;4.30;;
25263;SDS011;13211;51.796;5.808;2022-12-07T09:16:30;13.05;;;4.47;;
25263;SDS011;13211;51.796;5.808;2022-12-07T09:18:59;17.13;;;4.45;;
25263;SDS011;13211;51.796;5.808;2022-12-07T09:21:29;14.90;;;4.72;;
25263;SDS011;13211;51.796;5.808;2022-12-07T09:23:57;14.43;;;4.95;;
25263;SDS011;13211;51.796;5.808;2022-12-07T09:26:25;10.65;;;4.60;;
25263;SDS011;13211;51.796;5.808;2022-12-07T09:28:53;18.33;;;4.43;;
25263;SDS011;13211;51.796;5.808;2022-12-07T09:31:22;18.40;;;5.13;;
25263;SDS011;13211;51.796;5.808;2022-12-07T09:33:59;12.10;;;4.75;;
25263;SDS011;13211;51.796;5.808;2022-12-07T09:36:28;17.75;;;6.18;;
25263;SDS011;13211;51.796;5.808;2022-12-07T09:38:56;21.42;;;5.00;;
25263;SDS011;13211;51.796;5.808;2022-12-07T09:41:24;23.85;;;4.50;;
25263;SDS011;13211;51.796;5.808;2022-12-07T09:43:53;24.20;;;4.78;;
25263;SDS011;13211;51.796;5.808;2022-12-07T09:46:24;17.05;;;4.80;;
25263;SDS011;13211;51.796;5.808;2022-12-07T09:48:52;16.55;;;4.25;;
25263;SDS011;13211;51.796;5.808;2022-12-07T09:51:22;18.80;;;4.93;;
25263;SDS011;13211;51.796;5.808;2022-12-07T09:53:52;17.67;;;5.22;;
25263;SDS011;13211;51.796;5.808;2022-12-07T09:56:20;14.70;;;4.38;;
25263;SDS011;13211;51.796;5.808;2022-12-07T09:59:02;17.98;;;5.07;;
25263;SDS011;13211;51.796;5.808;2022-12-07T10:01:30;13.45;;;4.07;;
25263;SDS011;13211;51.796;5.808;2022-12-07T10:04:09;16.10;;;4.15;;
25263;SDS011;13211;51.796;5.808;2022-12-07T10:06:38;19.40;;;4.68;;
25263;SDS011;13211;51.796;5.808;2022-12-07T10:09:10;12.82;;;4.20;;
25263;SDS011;13211;51.796;5.808;2022-12-07T10:15:03;12.55;;;3.65;;
25263;SDS011;13211;51.796;5.808;2022-12-07T10:17:37;11.82;;;3.40;;
25263;SDS011;13211;51.796;5.808;2022-12-07T10:22:36;11.32;;;3.28;;
25263;SDS011;13211;51.796;5.808;2022-12-07T10:25:18;11.15;;;3.40;;
25263;SDS011;13211;51.796;5.808;2022-12-07T10:30:27;12.13;;;3.10;;
25263;SDS011;13211;51.796;5.808;2022-12-07T10:32:56;10.95;;;3.30;;
25263;SDS011;13211;51.796;5.808;2022-12-07T10:37:53;14.93;;;2.47;;
25263;SDS011;13211;51.796;5.808;2022-12-07T10:40:35;17.55;;;3.38;;
25263;SDS011;13211;51.796;5.808;2022-12-07T10:45:34;11.45;;;2.17;;
25263;SDS011;13211;51.796;5.808;2022-12-07T10:48:25;9.38;;;2.35;;
25263;SDS011;13211;51.796;5.808;2022-12-07T10:56:04;18.27;;;3.50;;
25263;SDS011;13211;51.796;5.808;2022-12-07T11:01:24;17.92;;;2.75;;
25263;SDS011;13211;51.796;5.808;2022-12-07T11:03:55;10.85;;;2.30;;
25263;SDS011;13211;51.796;5.808;2022-12-07T11:06:35;11.48;;;2.05;;
25263;SDS011;13211;51.796;5.808;2022-12-07T11:14:48;8.70;;;1.90;;
25263;SDS011;13211;51.796;5.808;2022-12-07T11:17:27;13.23;;;2.30;;
25263;SDS011;13211;51.796;5.808;2022-12-07T11:20:05;11.57;;;2.00;;
25263;SDS011;13211;51.796;5.808;2022-12-07T11:28:15;8.45;;;2.05;;
25263;SDS011;13211;51.796;5.808;2022-12-07T11:30:57;10.13;;;1.98;;
25263;SDS011;13211;51.796;5.808;2022-12-07T11:33:49;15.75;;;2.47;;
25263;SDS011;13211;51.796;5.808;2022-12-07T11:36:31;11.68;;;2.00;;
25263;SDS011;13211;51.796;5.808;2022-12-07T11:39:01;16.85;;;2.00;;
25263;SDS011;13211;51.796;5.808;2022-12-07T11:41:34;9.43;;;2.28;;
25263;SDS011;13211;51.796;5.808;2022-12-07T11:44:08;10.63;;;1.92;;
25263;SDS011;13211;51.796;5.808;2022-12-07T11:51:59;8.02;;;1.90;;
25263;SDS011;13211;51.796;5.808;2022-12-07T11:54:30;14.48;;;2.03;;
25263;SDS011;13211;51.796;5.808;2022-12-07T11:57:02;11.15;;;2.42;;
25263;SDS011;13211;51.796;5.808;2022-12-07T11:59:38;11.25;;;2.10;;
25263;SDS011;13211;51.796;5.808;2022-12-07T12:04:47;5.78;;;1.63;;
25263;SDS011;13211;51.796;5.808;2022-12-07T12:07:19;15.65;;;2.20;;
25263;SDS011;13211;51.796;5.808;2022-12-07T12:10:20;10.55;;;2.20;;
25263;SDS011;13211;51.796;5.808;2022-12-07T12:12:56;14.20;;;2.05;;
25263;SDS011;13211;51.796;5.808;2022-12-07T12:16:07;11.73;;;2.17;;
25263;SDS011;13211;51.796;5.808;2022-12-07T12:21:12;8.40;;;1.92;;
25263;SDS011;13211;51.796;5.808;2022-12-07T12:23:55;8.07;;;2.28;;
25263;SDS011;13211;51.796;5.808;2022-12-07T12:26:25;11.93;;;2.63;;
25263;SDS011;13211;51.796;5.808;2022-12-07T12:28:56;12.02;;;2.53;;
25263;SDS011;13211;51.796;5.808;2022-12-07T12:31:34;12.45;;;2.85;;
25263;SDS011;13211;51.796;5.808;2022-12-07T12:34:04;12.10;;;2.40;;
25263;SDS011;13211;51.796;5.808;2022-12-07T12:49:35;8.48;;;2.25;;
25263;SDS011;13211;51.796;5.808;2022-12-07T12:55:12;12.07;;;2.72;;
25263;SDS011;13211;51.796;5.808;2022-12-07T12:57:40;10.93;;;2.90;;
25263;SDS011;13211;51.796;5.808;2022-12-07T13:02:53;13.50;;;3.13;;
25263;SDS011;13211;51.796;5.808;2022-12-07T13:05:27;13.50;;;2.58;;
25263;SDS011;13211;51.796;5.808;2022-12-07T13:08:01;12.82;;;3.03;;
25263;SDS011;13211;51.796;5.808;2022-12-07T13:20:59;8.65;;;1.48;;
25263;SDS011;13211;51.796;5.808;2022-12-07T13:28:52;6.65;;;1.40;;
25263;SDS011;13211;51.796;5.808;2022-12-07T13:34:03;7.60;;;1.67;;
25263;SDS011;13211;51.796;5.808;2022-12-07T13:36:33;6.95;;;1.48;;
25263;SDS011;13211;51.796;5.808;2022-12-07T13:39:16;9.90;;;2.25;;
25263;SDS011;13211;51.796;5.808;2022-12-07T13:41:49;7.88;;;1.35;;
25263;SDS011;13211;51.796;5.808;2022-12-07T13:44:18;7.78;;;1.50;;
25263;SDS011;13211;51.796;5.808;2022-12-07T13:49:38;10.05;;;2.08;;
25263;SDS011;13211;51.796;5.808;2022-12-07T13:52:13;6.00;;;1.50;;
25263;SDS011;13211;51.796;5.808;2022-12-07T13:54:43;9.32;;;1.38;;
25263;SDS011;13211;51.796;5.808;2022-12-07T13:57:11;15.05;;;1.90;;
25263;SDS011;13211;51.796;5.808;2022-12-07T13:59:39;9.80;;;2.20;;
25263;SDS011;13211;51.796;5.808;2022-12-07T14:02:21;7.32;;;1.67;;
25263;SDS011;13211;51.796;5.808;2022-12-07T14:04:49;9.80;;;1.58;;
25263;SDS011;13211;51.796;5.808;2022-12-07T14:07:25;8.75;;;1.48;;
25263;SDS011;13211;51.796;5.808;2022-12-07T14:09:54;10.05;;;1.60;;
25263;SDS011;13211;51.796;5.808;2022-12-07T14:12:23;5.45;;;1.60;;
25263;SDS011;13211;51.796;5.808;2022-12-07T14:14:51;8.63;;;1.40;;
25263;SDS011;13211;51.796;5.808;2022-12-07T14:17:21;7.68;;;1.63;;
25263;SDS011;13211;51.796;5.808;2022-12-07T14:22:24;11.88;;;1.52;;
25263;SDS011;13211;51.796;5.808;2022-12-07T14:27:20;13.40;;;2.00;;
25263;SDS011;13211;51.796;5.808;2022-12-07T14:29:48;6.13;;;1.83;;
25263;SDS011;13211;51.796;5.808;2022-12-07T14:32:24;14.07;;;2.00;;
25263;SDS011;13211;51.796;5.808;2022-12-07T14:34:56;7.50;;;2.10;;
25263;SDS011;13211;51.796;5.808;2022-12-07T14:37:28;9.43;;;2.42;;
25263;SDS011;13211;51.796;5.808;2022-12-07T14:39:58;13.80;;;2.03;;
25263;SDS011;13211;51.796;5.808;2022-12-07T14:42:27;9.93;;;2.35;;
25263;SDS011;13211;51.796;5.808;2022-12-07T14:44:56;17.15;;;2.58;;
25263;SDS011;13211;51.796;5.808;2022-12-07T14:47:25;12.73;;;3.05;;
25263;SDS011;13211;51.796;5.808;2022-12-07T14:50:14;18.15;;;2.60;;
25263;SDS011;13211;51.796;5.808;2022-12-07T14:52:46;8.52;;;2.35;;
25263;SDS011;13211;51.796;5.808;2022-12-07T14:55:34;13.98;;;2.58;;
25263;SDS011;13211;51.796;5.808;2022-12-07T14:58:03;15.10;;;2.80;;
25263;SDS011;13211;51.796;5.808;2022-12-07T15:00:34;14.20;;;2.45;;
25263;SDS011;13211;51.796;5.808;2022-12-07T15:03:03;14.52;;;3.15;;
25263;SDS011;13211;51.796;5.808;2022-12-07T15:05:36;11.73;;;2.45;;
25263;SDS011;13211;51.796;5.808;2022-12-07T15:08:08;8.57;;;1.85;;
25263;SDS011;13211;51.796;5.808;2022-12-07T15:10:36;9.68;;;1.80;;
25263;SDS011;13211;51.796;5.808;2022-12-07T15:13:07;10.00;;;2.00;;
25263;SDS011;13211;51.796;5.808;2022-12-07T15:15:55;6.68;;;2.22;;
25263;SDS011;13211;51.796;5.808;2022-12-07T15:18:23;4.57;;;1.63;;
25263;SDS011;13211;51.796;5.808;2022-12-07T15:20:51;12.73;;;2.38;;
25263;SDS011;13211;51.796;5.808;2022-12-07T15:23:18;9.30;;;1.83;;
25263;SDS011;13211;51.796;5.808;2022-12-07T15:25:47;8.50;;;2.17;;
25263;SDS011;13211;51.796;5.808;2022-12-07T15:28:15;6.05;;;1.80;;
25263;SDS011;13211;51.796;5.808;2022-12-07T15:30:43;8.65;;;1.77;;
25263;SDS011;13211;51.796;5.808;2022-12-07T15:33:13;10.10;;;1.70;;
25263;SDS011;13211;51.796;5.808;2022-12-07T15:35:41;13.25;;;1.85;;
25263;SDS011;13211;51.796;5.808;2022-12-07T15:38:10;5.20;;;1.42;;
25263;SDS011;13211;51.796;5.808;2022-12-07T15:40:38;8.25;;;2.10;;
25263;SDS011;13211;51.796;5.808;2022-12-07T15:43:08;7.20;;;1.60;;
25263;SDS011;13211;51.796;5.808;2022-12-07T15:45:56;5.72;;;1.45;;
25263;SDS011;13211;51.796;5.808;2022-12-07T15:48:24;3.80;;;1.40;;
25263;SDS011;13211;51.796;5.808;2022-12-07T15:53:22;6.97;;;1.60;;
25263;SDS011;13211;51.796;5.808;2022-12-07T15:55:50;7.75;;;1.50;;
25263;SDS011;13211;51.796;5.808;2022-12-07T15:58:19;6.15;;;2.22;;
25263;SDS011;13211;51.796;5.808;2022-12-07T16:00:47;6.28;;;1.80;;
25263;SDS011;13211;51.796;5.808;2022-12-07T16:03:15;7.07;;;1.60;;
25263;SDS011;13211;51.796;5.808;2022-12-07T16:05:50;8.32;;;1.77;;
25263;SDS011;13211;51.796;5.808;2022-12-07T16:08:20;6.30;;;2.17;;
25263;SDS011;13211;51.796;5.808;2022-12-07T16:10:49;7.63;;;2.20;;
25263;SDS011;13211;51.796;5.808;2022-12-07T16:13:16;11.50;;;1.67;;
25263;SDS011;13211;51.796;5.808;2022-12-07T16:15:47;7.57;;;1.90;;
25263;SDS011;13211;51.796;5.808;2022-12-07T16:18:15;6.40;;;1.70;;
25263;SDS011;13211;51.796;5.808;2022-12-07T16:20:47;5.38;;;2.00;;
25263;SDS011;13211;51.796;5.808;2022-12-07T16:23:16;8.77;;;2.05;;
25263;SDS011;13211;51.796;5.808;2022-12-07T16:25:45;6.30;;;1.75;;
25263;SDS011;13211;51.796;5.808;2022-12-07T16:28:13;8.18;;;2.13;;
25263;SDS011;13211;51.796;5.808;2022-12-07T16:30:43;6.15;;;1.80;;
25263;SDS011;13211;51.796;5.808;2022-12-07T16:33:11;11.13;;;2.42;;
25263;SDS011;13211;51.796;5.808;2022-12-07T16:35:39;9.93;;;2.75;;
25263;SDS011;13211;51.796;5.808;2022-12-07T16:38:09;7.75;;;3.25;;
25263;SDS011;13211;51.796;5.808;2022-12-07T16:40:38;6.70;;;2.47;;
25263;SDS011;13211;51.796;5.808;2022-12-07T16:43:06;7.13;;;2.90;;
25263;SDS011;13211;51.796;5.808;2022-12-07T16:45:36;8.40;;;2.65;;
25263;SDS011;13211;51.796;5.808;2022-12-07T16:48:04;10.93;;;2.42;;
25263;SDS011;13211;51.796;5.808;2022-12-07T16:50:33;8.60;;;2.33;;
25263;SDS011;13211;51.796;5.808;2022-12-07T16:53:04;6.88;;;2.25;;
25263;SDS011;13211;51.796;5.808;2022-12-07T16:55:41;9.15;;;2.72;;
25263;SDS011;13211;51.796;5.808;2022-12-07T16:58:11;7.85;;;2.45;;
25263;SDS011;13211;51.796;5.808;2022-12-07T17:00:40;10.25;;;2.70;;
25263;SDS011;13211;51.796;5.808;2022-12-07T17:03:09;6.55;;;3.10;;
25263;SDS011;13211;51.796;5.808;2022-12-07T17:05:46;7.80;;;2.95;;
25263;SDS011;13211;51.796;5.808;2022-12-07T17:08:14;7.15;;;3.22;;
25263;SDS011;13211;51.796;5.808;2022-12-07T17:10:43;14.20;;;3.42;;
25263;SDS011;13211;51.796;5.808;2022-12-07T17:13:12;11.77;;;3.20;;